createdAt,value
2018-08-20T00:02:55.101Z,7.47
2018-08-20T00:05:58.867Z,7.90
2018-08-20T00:09:02.830Z,6.63
2018-08-20T00:12:07.671Z,31.27
2018-08-20T00:15:11.295Z,28.00
2018-08-20T00:18:18.987Z,25.40
2018-08-20T00:21:22.540Z,14.87
2018-08-20T00:24:26.104Z,8.67
2018-08-20T00:27:31.557Z,8.63
2018-08-20T00:30:35.196Z,8.73
2018-08-20T00:33:38.713Z,7.90
2018-08-20T00:36:43.810Z,8.33
2018-08-20T00:39:47.328Z,8.50
2018-08-20T00:42:50.898Z,7.50
2018-08-20T00:45:54.400Z,6.43
2018-08-20T00:48:58.986Z,6.10
2018-08-20T00:52:02.529Z,6.70
2018-08-20T00:55:07.500Z,6.23
2018-08-20T00:58:10.977Z,6.70
2018-08-20T01:01:14.493Z,6.90
2018-08-20T01:04:17.970Z,6.67
2018-08-20T01:07:21.479Z,6.30
2018-08-20T01:10:24.964Z,6.57
2018-08-20T01:13:29.416Z,6.73
2018-08-20T01:16:32.922Z,6.37
2018-08-20T01:19:36.444Z,6.90
2018-08-20T01:22:39.955Z,6.80
2018-08-20T01:25:43.447Z,15.30
2018-08-20T01:28:46.999Z,7.43
2018-08-20T01:31:50.484Z,7.00
2018-08-20T01:34:53.959Z,7.93
2018-08-20T01:37:57.436Z,7.60
2018-08-20T01:41:00.921Z,7.37
2018-08-20T01:44:04.408Z,11.53
2018-08-20T01:47:07.900Z,21.07
2018-08-20T01:50:11.408Z,24.87
2018-08-20T01:53:14.967Z,8.37
2018-08-20T01:56:18.481Z,7.80
2018-08-20T01:59:22.986Z,8.87
2018-08-20T02:02:26.619Z,9.07
2018-08-20T02:05:30.220Z,13.83
2018-08-20T02:08:33.769Z,7.93
2018-08-20T02:11:37.324Z,6.97
2018-08-20T02:14:40.819Z,7.40
2018-08-20T02:17:45.273Z,13.63
2018-08-20T02:20:48.768Z,18.00
2018-08-20T02:23:52.240Z,8.07
2018-08-20T02:26:56.028Z,11.00
2018-08-20T02:29:59.491Z,7.70
2018-08-20T02:33:03.020Z,7.97
2018-08-20T02:36:06.505Z,8.03
2018-08-20T02:39:11.952Z,7.50
2018-08-20T02:42:15.543Z,7.30
2018-08-20T02:45:19.616Z,7.80
2018-08-20T02:48:24.266Z,7.30
2018-08-20T02:51:27.793Z,7.80
2018-08-20T02:54:31.293Z,7.83
2018-08-20T02:57:34.922Z,7.83
2018-08-20T03:00:39.456Z,8.17
2018-08-20T03:03:43.051Z,8.13
2018-08-20T03:06:46.566Z,8.93
2018-08-20T03:09:52.360Z,17.07
2018-08-20T03:12:55.896Z,9.30
2018-08-20T03:16:00.564Z,8.83
2018-08-20T03:19:04.373Z,9.03
2018-08-20T03:22:07.956Z,8.87
2018-08-20T03:25:11.594Z,8.03
2018-08-20T03:28:15.368Z,8.07
2018-08-20T03:31:18.968Z,11.97
2018-08-20T03:34:24.513Z,11.40
2018-08-20T03:37:28.113Z,16.87
2018-08-20T03:40:31.732Z,18.20
2018-08-20T03:43:35.372Z,10.83
2018-08-20T03:46:39.851Z,11.23
2018-08-20T03:49:43.460Z,10.10
2018-08-20T03:52:47.250Z,9.60
2018-08-20T03:55:50.960Z,9.03
2018-08-20T03:58:54.580Z,9.37
2018-08-20T04:01:58.689Z,9.00
2018-08-20T04:05:02.405Z,9.07
2018-08-20T04:08:06.143Z,10.13
2018-08-20T04:11:09.974Z,16.77
2018-08-20T04:14:14.810Z,13.57
2018-08-20T04:17:25.512Z,16.13
2018-08-20T04:20:35.020Z,12.77
2018-08-20T04:23:38.556Z,9.73
2018-08-20T04:26:42.157Z,9.60
2018-08-20T04:29:45.826Z,9.87
2018-08-20T04:32:49.478Z,15.77
2018-08-20T04:35:53.147Z,13.53
2018-08-20T04:38:56.776Z,11.17
2018-08-20T04:42:03.331Z,9.83
2018-08-20T04:45:08.463Z,9.53
2018-08-20T04:48:14.103Z,26.27
2018-08-20T04:51:20.750Z,19.00
2018-08-20T04:54:27.189Z,12.17
2018-08-20T04:57:35.972Z,10.27
2018-08-20T05:00:40.969Z,9.50
2018-08-20T05:03:49.205Z,9.23
2018-08-20T05:06:54.848Z,10.10
2018-08-20T05:09:58.614Z,10.03
2018-08-20T05:13:02.773Z,10.37
2018-08-20T05:16:06.402Z,9.93
2018-08-20T05:19:10.957Z,9.30
2018-08-20T05:22:14.941Z,8.83
2018-08-20T05:25:18.647Z,10.47
2018-08-20T05:28:22.534Z,12.33
2018-08-20T05:31:29.098Z,10.07
2018-08-20T05:34:32.700Z,10.10
2018-08-20T05:37:36.411Z,8.87
2018-08-20T05:40:41.103Z,9.77
2018-08-20T05:43:47.173Z,10.07
2018-08-20T05:46:52.643Z,9.67
2018-08-20T05:49:56.761Z,18.30
2018-08-20T05:53:00.928Z,10.47
2018-08-20T05:56:05.730Z,10.40
2018-08-20T05:59:09.695Z,9.93
2018-08-20T06:02:14.518Z,18.03
2018-08-20T06:05:19.140Z,10.37
2018-08-20T06:08:25.808Z,10.10
2018-08-20T06:11:30.024Z,9.43
2018-08-20T06:14:35.332Z,9.90
2018-08-20T06:17:40.327Z,9.93
2018-08-20T06:20:46.181Z,10.23
2018-08-20T06:23:51.943Z,10.07
2018-08-20T06:26:56.635Z,9.10
2018-08-20T06:30:01.367Z,9.80
2018-08-20T06:33:05.169Z,10.33
2018-08-20T06:36:09.120Z,9.67
2018-08-20T06:39:13.743Z,9.87
2018-08-20T06:42:20.854Z,10.03
2018-08-20T06:45:25.355Z,10.17
2018-08-20T06:48:29.691Z,10.53
2018-08-20T06:51:33.537Z,9.50
2018-08-20T06:54:37.324Z,10.00
2018-08-20T06:57:41.116Z,10.87
2018-08-20T07:00:45.263Z,10.37
2018-08-20T07:03:49.002Z,9.37
2018-08-20T07:06:53.069Z,9.80
2018-08-20T07:09:56.957Z,9.17
2018-08-20T07:13:11.827Z,9.40
2018-08-20T07:16:15.642Z,9.20
2018-08-20T07:19:20.444Z,9.37
2018-08-20T07:22:25.425Z,8.67
2018-08-20T07:25:29.219Z,9.80
2018-08-20T07:28:32.934Z,9.90
2018-08-20T07:31:37.339Z,9.07
2018-08-20T07:34:43.105Z,9.30
2018-08-20T07:37:47.525Z,8.20
2018-08-20T07:40:53.089Z,8.67
2018-08-20T07:43:58.661Z,8.20
2018-08-20T07:47:02.397Z,8.07
2018-08-20T07:50:06.688Z,8.07
2018-08-20T07:53:11.487Z,8.67
2018-08-20T07:56:16.471Z,8.23
2018-08-20T07:59:20.324Z,8.70
2018-08-20T08:02:24.004Z,8.53
2018-08-20T08:05:27.831Z,6.80
2018-08-20T08:08:33.782Z,7.20
2018-08-20T08:11:38.357Z,7.10
2018-08-20T08:14:43.481Z,6.37
2018-08-20T08:17:48.207Z,5.00
2018-08-20T08:20:52.311Z,6.37
2018-08-20T08:23:58.875Z,6.80
2018-08-20T08:27:04.522Z,5.17
2018-08-20T08:30:28.441Z,4.90
2018-08-20T08:33:36.463Z,4.60
2018-08-20T08:40:02.728Z,4.87
2018-08-20T08:46:30.786Z,4.60
2018-08-20T08:49:34.712Z,4.97
2018-08-20T08:52:38.408Z,5.50
2018-08-20T08:55:42.183Z,5.40
2018-08-20T08:58:45.994Z,5.37
2018-08-20T09:01:50.980Z,6.27
2018-08-20T09:04:54.901Z,5.57
2018-08-20T09:07:59.007Z,5.67
2018-08-20T09:11:02.746Z,6.07
2018-08-20T09:14:06.447Z,5.40
2018-08-20T09:17:10.474Z,5.37
2018-08-20T09:20:15.690Z,5.13
2018-08-20T09:23:19.691Z,7.70
2018-08-20T09:26:24.665Z,5.87
2018-08-20T09:29:29.717Z,5.33
2018-08-20T09:32:33.507Z,5.53
2018-08-20T09:35:38.189Z,5.37
2018-08-20T09:38:44.266Z,7.87
2018-08-20T09:41:49.357Z,6.57
2018-08-20T09:44:54.317Z,5.43
2018-08-20T09:47:59.364Z,4.87
2018-08-20T09:51:04.781Z,5.40
2018-08-20T09:54:08.933Z,4.80
2018-08-20T09:57:13.773Z,5.70
2018-08-20T10:00:23.638Z,7.30
2018-08-20T10:03:28.206Z,10.00
2018-08-20T10:06:33.778Z,7.60
2018-08-20T10:09:39.453Z,5.30
2018-08-20T10:12:44.701Z,5.10
2018-08-20T10:15:49.788Z,5.13
2018-08-20T10:18:54.958Z,6.07
2018-08-20T10:22:00.774Z,5.10
2018-08-20T10:25:06.749Z,4.90
2018-08-20T10:28:10.640Z,5.33
2018-08-20T10:31:16.503Z,5.43
2018-08-20T10:34:20.307Z,5.03
2018-08-20T10:37:24.199Z,4.93
2018-08-20T10:40:28.120Z,4.57
2018-08-20T10:43:33.629Z,3.87
2018-08-20T10:46:37.625Z,4.43
2018-08-20T10:49:42.097Z,4.43
2018-08-20T10:52:48.999Z,4.57
2018-08-20T10:55:53.107Z,4.20
2018-08-20T10:58:57.874Z,3.93
2018-08-20T11:02:02.064Z,4.30
2018-08-20T11:05:06.934Z,3.97
2018-08-20T11:08:10.882Z,3.40
2018-08-20T11:11:14.968Z,3.53
2018-08-20T11:14:19.020Z,3.97
2018-08-20T11:17:24.583Z,3.80
2018-08-20T11:20:29.824Z,4.70
2018-08-20T11:23:36.249Z,4.10
2018-08-20T11:26:40.058Z,4.23
2018-08-20T11:29:43.688Z,4.13
2018-08-20T11:32:47.718Z,3.87
2018-08-20T11:35:52.697Z,3.63
2018-08-20T11:38:56.443Z,3.83
2018-08-20T11:42:01.032Z,4.23
2018-08-20T11:45:05.049Z,4.63
2018-08-20T11:48:16.178Z,4.37
2018-08-20T11:51:19.994Z,4.50
2018-08-20T11:54:24.080Z,7.07
2018-08-20T11:57:28.143Z,8.23
2018-08-20T12:00:32.003Z,5.40
2018-08-20T12:03:36.392Z,5.00
2018-08-20T12:06:40.891Z,15.30
2018-08-20T12:09:44.786Z,4.13
2018-08-20T12:12:48.593Z,3.67
2018-08-20T12:15:52.591Z,3.83
2018-08-20T12:18:58.044Z,4.20
2018-08-20T12:22:01.895Z,24.30
2018-08-20T12:25:06.627Z,4.17
2018-08-20T12:28:10.389Z,4.60
2018-08-20T12:31:14.216Z,3.30
2018-08-20T12:34:18.226Z,3.27
2018-08-20T12:37:23.011Z,3.40
2018-08-20T12:40:26.986Z,3.50
2018-08-20T12:43:30.699Z,5.67
2018-08-20T12:46:35.769Z,3.67
2018-08-20T12:49:40.631Z,3.07
2018-08-20T12:52:45.207Z,3.70
2018-08-20T12:55:50.962Z,3.50
2018-08-20T12:58:55.880Z,3.50
2018-08-20T13:01:59.687Z,2.90
2018-08-20T13:05:03.606Z,3.10
2018-08-20T13:08:08.043Z,3.33
2018-08-20T13:11:11.936Z,2.93
2018-08-20T13:14:15.844Z,3.27
2018-08-20T13:17:19.701Z,3.20
2018-08-20T13:20:23.584Z,3.30
2018-08-20T13:23:28.491Z,3.37
2018-08-20T13:26:32.424Z,3.20
2018-08-20T13:29:37.250Z,3.10
2018-08-20T13:32:43.040Z,4.60
2018-08-20T13:35:48.113Z,5.40
2018-08-20T13:38:52.097Z,13.83
2018-08-20T13:41:56.284Z,4.67
2018-08-20T13:45:00.378Z,2.90
2018-08-20T13:48:05.360Z,3.10
2018-08-20T13:51:11.158Z,4.97
2018-08-20T13:54:14.927Z,3.03
2018-08-20T13:57:20.128Z,3.00
2018-08-20T14:00:24.968Z,3.17
2018-08-20T14:03:29.871Z,2.93
2018-08-20T14:06:34.240Z,2.73
2018-08-20T14:09:39.220Z,3.20
2018-08-20T14:12:43.984Z,3.33
2018-08-20T14:15:47.839Z,3.13
2018-08-20T14:18:52.960Z,3.03
2018-08-20T14:21:57.334Z,3.30
2018-08-20T14:25:01.258Z,3.13
2018-08-20T14:28:07.010Z,10.63
2018-08-20T14:31:10.863Z,2.77
2018-08-20T14:34:14.970Z,3.10
2018-08-20T14:37:18.729Z,3.00
2018-08-20T14:40:24.995Z,3.03
2018-08-20T14:43:29.219Z,3.47
2018-08-20T14:46:33.027Z,3.50
2018-08-20T14:49:36.978Z,2.87
2018-08-20T14:52:41.265Z,2.90
2018-08-20T14:59:22.920Z,2.40
2018-08-20T15:02:26.927Z,2.17
2018-08-20T15:05:30.766Z,2.30
2018-08-20T15:08:39.632Z,2.53
2018-08-20T15:11:43.661Z,2.47
2018-08-20T15:14:47.722Z,2.60
2018-08-20T15:17:53.846Z,2.50
2018-08-20T15:20:58.822Z,2.67
2018-08-20T15:24:02.580Z,2.50
2018-08-20T15:27:07.474Z,2.30
2018-08-20T15:30:12.238Z,2.37
2018-08-20T15:33:17.309Z,2.63
2018-08-20T15:36:21.275Z,2.57
2018-08-20T15:39:26.949Z,2.80
2018-08-20T15:42:32.807Z,3.10
2018-08-20T15:45:38.449Z,8.73
2018-08-20T15:48:42.368Z,3.53
2018-08-20T15:51:46.141Z,2.90
2018-08-20T15:54:51.052Z,2.67
2018-08-20T15:57:55.885Z,2.40
2018-08-20T16:01:01.200Z,2.90
2018-08-20T16:04:05.569Z,2.70
2018-08-20T16:07:09.379Z,2.60
2018-08-20T16:10:13.450Z,3.03
2018-08-20T16:13:17.482Z,2.80
2018-08-20T16:16:21.986Z,2.90
2018-08-20T16:19:25.868Z,2.93
2018-08-20T16:22:32.105Z,2.30
2018-08-20T16:25:36.318Z,2.43
2018-08-20T16:28:40.161Z,2.67
2018-08-20T16:31:44.186Z,5.10
2018-08-20T16:34:49.183Z,4.03
2018-08-20T16:37:53.212Z,2.37
2018-08-20T16:40:57.456Z,2.20
2018-08-20T16:44:01.739Z,2.50
2018-08-20T16:47:07.093Z,2.30
2018-08-20T16:50:12.590Z,2.63
2018-08-20T16:53:16.810Z,2.67
2018-08-20T16:56:23.185Z,2.90
2018-08-20T16:59:28.197Z,2.80
2018-08-20T17:02:32.267Z,2.60
2018-08-20T17:05:44.179Z,3.00
2018-08-20T17:08:48.245Z,3.00
2018-08-20T17:11:52.206Z,2.70
2018-08-20T17:14:57.183Z,12.50
2018-08-20T17:18:01.926Z,3.47
2018-08-20T17:21:05.971Z,2.70
2018-08-20T17:24:09.947Z,3.07
2018-08-20T17:27:16.757Z,2.60
2018-08-20T17:30:24.739Z,10.93
2018-08-20T17:33:32.261Z,3.93
2018-08-20T17:36:40.866Z,2.90
2018-08-20T17:39:57.159Z,2.90
2018-08-20T17:43:01.349Z,2.90
2018-08-20T17:46:05.627Z,2.83
2018-08-20T17:49:20.684Z,3.20
2018-08-20T17:52:36.366Z,2.93
2018-08-20T17:55:42.037Z,2.83
2018-08-20T17:58:59.444Z,3.00
2018-08-20T18:02:04.168Z,2.90
2018-08-20T18:05:09.373Z,3.30
2018-08-20T18:08:13.400Z,5.37
2018-08-20T18:11:19.472Z,2.90
2018-08-20T18:14:25.858Z,3.50
2018-08-20T18:17:30.427Z,2.73
2018-08-20T18:20:40.126Z,2.90
2018-08-20T18:23:45.102Z,3.30
2018-08-20T18:26:53.487Z,2.90
2018-08-20T18:30:01.809Z,3.60
2018-08-20T18:33:15.543Z,3.40
2018-08-20T18:36:20.673Z,3.47
2018-08-20T18:39:24.481Z,3.07
2018-08-20T18:42:38.814Z,3.07
2018-08-20T19:00:26.685Z,4.83
2018-08-20T19:04:09.029Z,11.23
2018-08-20T19:29:30.671Z,3.50
2018-08-20T19:32:51.216Z,3.40
2018-08-20T20:01:46.032Z,3.13
2018-08-20T20:04:49.785Z,3.23
2018-08-20T20:08:02.582Z,3.13
2018-08-20T20:11:14.391Z,2.83
2018-08-20T20:14:18.148Z,3.40
2018-08-20T20:17:23.660Z,3.10
2018-08-20T20:20:27.212Z,3.10
2018-08-20T20:23:30.827Z,2.90
2018-08-20T20:26:34.515Z,2.73
2018-08-20T20:29:38.233Z,3.60
2018-08-20T20:32:41.831Z,5.40
2018-08-20T20:35:45.423Z,13.77
2018-08-20T20:38:49.007Z,2.60
2018-08-20T20:41:52.509Z,2.87
2018-08-20T20:44:56.302Z,2.40
2018-08-20T20:47:59.811Z,2.67
2018-08-20T20:51:03.922Z,2.30
2018-08-20T20:54:07.526Z,2.30
2018-08-20T20:57:11.024Z,5.73
2018-08-20T21:00:14.674Z,7.30
2018-08-20T21:03:18.205Z,12.17
2018-08-20T21:06:21.548Z,2.83
2018-08-20T21:09:25.615Z,3.20
2018-08-20T21:12:38.722Z,2.90
2018-08-20T21:15:42.507Z,2.60
2018-08-20T21:30:57.386Z,2.87
2018-08-20T22:52:04.399Z,1.90
2018-08-20T22:55:24.791Z,1.77
2018-08-20T23:02:14.447Z,1.87
2018-08-20T23:05:50.129Z,1.47
2018-08-20T23:10:09.975Z,2.70
2018-08-20T23:28:08.410Z,1.60
2018-08-20T23:31:20.317Z,1.87
2018-08-20T23:34:33.734Z,1.77
2018-08-20T23:37:49.847Z,1.83
2018-08-20T23:41:18.682Z,2.03
2018-08-20T23:44:27.840Z,1.80
2018-08-20T23:47:39.698Z,1.50
2018-08-20T23:51:05.420Z,1.40
2018-08-20T23:54:17.391Z,1.43
2018-08-20T23:57:33.781Z,1.60
